createdAt,value
2023-02-02T00:00:48.633Z,4.28
2023-02-02T00:03:15.677Z,3.90
2023-02-02T00:05:46.749Z,4.07
2023-02-02T00:08:13.531Z,4.68
2023-02-02T00:10:40.124Z,4.10
2023-02-02T00:13:06.616Z,3.90
2023-02-02T00:15:33.187Z,4.00
2023-02-02T00:17:59.735Z,3.97
2023-02-02T00:20:26.205Z,3.95
2023-02-02T00:22:52.992Z,4.40
2023-02-02T00:25:19.543Z,4.00
2023-02-02T00:27:46.064Z,3.38
2023-02-02T00:30:13.159Z,3.70
2023-02-02T00:32:40.779Z,4.07
2023-02-02T00:35:08.433Z,4.63
2023-02-02T00:37:35.265Z,4.95
2023-02-02T00:40:02.105Z,4.55
2023-02-02T00:42:28.580Z,4.80
2023-02-02T00:45:13.929Z,4.82
2023-02-02T00:47:40.442Z,4.20
2023-02-02T00:50:07.265Z,4.70
2023-02-02T00:52:33.791Z,4.53
2023-02-02T00:55:00.301Z,4.53
2023-02-02T00:57:28.893Z,4.90
2023-02-02T00:59:55.601Z,4.05
2023-02-02T01:02:22.129Z,3.58
2023-02-02T01:04:48.907Z,3.90
2023-02-02T01:07:15.434Z,4.00
2023-02-02T01:09:41.917Z,3.92
2023-02-02T01:12:08.398Z,4.80
2023-02-02T01:14:34.901Z,3.80
2023-02-02T01:17:01.501Z,3.90
2023-02-02T01:19:28.012Z,5.05
2023-02-02T01:21:54.614Z,4.20
2023-02-02T01:24:21.127Z,4.10
2023-02-02T01:26:47.665Z,4.68
2023-02-02T01:29:15.546Z,4.72
2023-02-02T01:31:42.341Z,4.88
2023-02-02T01:34:10.043Z,4.15
2023-02-02T01:36:36.542Z,4.78
2023-02-02T01:39:03.308Z,5.70
2023-02-02T01:41:30.441Z,5.03
2023-02-02T01:44:02.929Z,5.15
2023-02-02T01:46:34.477Z,5.05
2023-02-02T01:49:08.089Z,5.85
2023-02-02T01:51:55.940Z,4.38
2023-02-02T01:54:31.727Z,3.90
2023-02-02T01:57:01.471Z,4.30
2023-02-02T01:59:28.592Z,5.20
2023-02-02T02:01:55.306Z,4.13
2023-02-02T02:04:23.887Z,5.03
2023-02-02T02:06:53.409Z,5.00
2023-02-02T02:09:20.292Z,4.30
2023-02-02T02:11:46.932Z,4.70
2023-02-02T02:14:33.607Z,4.50
2023-02-02T02:17:06.721Z,4.65
2023-02-02T02:20:06.537Z,3.72
2023-02-02T02:23:02.992Z,4.60
2023-02-02T02:26:04.105Z,4.53
2023-02-02T02:29:08.325Z,4.53
2023-02-02T02:31:34.972Z,3.80
2023-02-02T02:34:18.411Z,4.05
2023-02-02T02:36:44.946Z,3.97
2023-02-02T02:40:08.127Z,5.30
2023-02-02T02:42:39.152Z,4.60
2023-02-02T02:45:07.648Z,5.10
2023-02-02T02:47:35.072Z,4.63
2023-02-02T02:50:02.914Z,4.60
2023-02-02T02:52:29.666Z,4.38
2023-02-02T02:54:58.042Z,5.55
2023-02-02T02:57:52.722Z,4.53
2023-02-02T03:00:30.212Z,4.72
2023-02-02T03:03:04.561Z,4.45
2023-02-02T03:05:36.689Z,4.93
2023-02-02T03:08:24.156Z,5.97
2023-02-02T03:10:51.482Z,4.63
2023-02-02T03:13:18.750Z,5.28
2023-02-02T03:15:45.844Z,5.28
2023-02-02T03:18:17.352Z,5.18
2023-02-02T03:20:45.126Z,5.18
2023-02-02T03:23:11.896Z,5.20
2023-02-02T03:25:38.504Z,5.20
2023-02-02T03:28:06.326Z,5.22
2023-02-02T03:30:33.693Z,5.65
2023-02-02T03:33:00.377Z,5.88
2023-02-02T03:35:26.972Z,5.45
2023-02-02T03:37:53.527Z,5.20
2023-02-02T03:40:20.037Z,5.68
2023-02-02T03:42:46.585Z,6.20
2023-02-02T03:45:13.293Z,6.28
2023-02-02T03:47:39.825Z,7.28
2023-02-02T03:50:09.098Z,6.10
2023-02-02T03:52:36.295Z,5.65
2023-02-02T03:55:02.962Z,5.45
2023-02-02T03:57:29.447Z,6.28
2023-02-02T03:59:55.951Z,5.57
2023-02-02T04:02:22.463Z,5.68
2023-02-02T04:04:48.970Z,6.50
2023-02-02T04:07:15.571Z,7.07
2023-02-02T04:09:42.042Z,7.20
2023-02-02T04:12:08.524Z,6.35
2023-02-02T04:14:35.017Z,7.07
2023-02-02T04:17:01.591Z,7.13
2023-02-02T04:19:28.126Z,7.13
2023-02-02T04:21:54.596Z,7.00
2023-02-02T04:24:21.078Z,7.25
2023-02-02T04:26:47.747Z,6.68
2023-02-02T04:29:14.424Z,6.45
2023-02-02T04:31:40.953Z,6.65
2023-02-02T04:34:07.463Z,6.75
2023-02-02T04:36:33.977Z,7.20
2023-02-02T04:39:00.485Z,8.57
2023-02-02T04:41:26.998Z,7.53
2023-02-02T04:43:53.531Z,7.05
2023-02-02T04:46:20.108Z,7.90
2023-02-02T04:48:49.130Z,6.82
2023-02-02T04:51:15.866Z,5.90
2023-02-02T04:53:42.671Z,6.80
2023-02-02T04:56:12.972Z,6.18
2023-02-02T04:58:39.622Z,6.37
2023-02-02T05:01:17.247Z,5.28
2023-02-02T05:03:44.000Z,5.70
2023-02-02T05:06:10.645Z,5.50
2023-02-02T05:08:37.322Z,4.85
2023-02-02T05:11:11.725Z,5.47
2023-02-02T05:13:38.377Z,5.97
2023-02-02T05:16:05.463Z,6.45
2023-02-02T05:18:32.559Z,5.38
2023-02-02T05:21:01.357Z,6.00
2023-02-02T05:23:28.007Z,5.97
2023-02-02T05:25:54.825Z,6.18
2023-02-02T05:28:22.561Z,6.30
2023-02-02T05:30:49.150Z,5.82
2023-02-02T05:33:18.237Z,6.03
2023-02-02T05:35:45.872Z,6.13
2023-02-02T05:38:12.407Z,5.25
2023-02-02T05:40:38.885Z,6.10
2023-02-02T05:43:05.377Z,6.03
2023-02-02T05:45:32.937Z,6.57
2023-02-02T05:47:59.773Z,6.57
2023-02-02T05:50:26.311Z,6.38
2023-02-02T05:53:02.063Z,7.15
2023-02-02T05:55:28.592Z,7.22
2023-02-02T05:57:55.718Z,6.78
2023-02-02T06:00:22.713Z,6.00
2023-02-02T06:02:49.434Z,6.90
2023-02-02T06:05:16.001Z,7.43
2023-02-02T06:07:42.521Z,6.78
2023-02-02T06:10:09.314Z,6.13
2023-02-02T06:12:35.845Z,6.47
2023-02-02T06:15:03.943Z,6.47
2023-02-02T06:17:30.451Z,6.07
2023-02-02T06:19:56.919Z,5.82
2023-02-02T06:22:23.519Z,7.35
2023-02-02T06:24:50.056Z,6.38
2023-02-02T06:27:16.639Z,6.82
2023-02-02T06:29:43.193Z,6.35
2023-02-02T06:32:09.771Z,6.72
2023-02-02T06:34:36.335Z,7.75
2023-02-02T06:37:02.905Z,6.97
2023-02-02T06:39:31.454Z,6.63
2023-02-02T06:41:59.333Z,7.85
2023-02-02T06:44:29.434Z,6.97
2023-02-02T06:46:55.895Z,7.32
2023-02-02T06:49:22.426Z,8.52
2023-02-02T06:51:48.993Z,7.95
2023-02-02T06:54:15.574Z,8.10
2023-02-02T06:56:42.080Z,8.93
2023-02-02T06:59:08.626Z,7.35
2023-02-02T07:01:35.264Z,8.15
2023-02-02T07:04:02.084Z,7.93
2023-02-02T07:06:29.031Z,8.13
2023-02-02T07:09:01.528Z,7.47
2023-02-02T07:11:36.949Z,7.93
2023-02-02T07:14:04.804Z,8.25
2023-02-02T07:16:32.112Z,7.53
2023-02-02T07:18:58.625Z,8.50
2023-02-02T07:21:28.204Z,7.63
2023-02-02T07:23:54.727Z,8.20
2023-02-02T07:26:21.393Z,8.05
2023-02-02T07:28:47.941Z,7.70
2023-02-02T07:31:15.552Z,8.32
2023-02-02T07:33:43.408Z,8.95
2023-02-02T07:36:11.367Z,8.98
2023-02-02T07:38:38.292Z,9.13
2023-02-02T07:41:04.914Z,8.73
2023-02-02T07:43:31.593Z,8.40
2023-02-02T07:46:06.409Z,8.35
2023-02-02T07:48:32.949Z,8.13
2023-02-02T07:51:03.811Z,9.15
2023-02-02T07:53:30.753Z,9.43
2023-02-02T07:56:16.798Z,9.70
2023-02-02T07:58:43.792Z,9.15
2023-02-02T08:01:13.186Z,9.77
2023-02-02T08:03:40.432Z,10.73
2023-02-02T08:06:12.939Z,10.43
2023-02-02T08:08:39.874Z,10.50
2023-02-02T08:11:09.946Z,11.05
2023-02-02T08:13:36.672Z,11.02
2023-02-02T08:16:03.409Z,12.77
2023-02-02T08:18:29.907Z,12.07
2023-02-02T08:21:04.948Z,14.23
2023-02-02T08:23:31.760Z,13.70
2023-02-02T08:26:11.445Z,14.50
2023-02-02T08:28:39.172Z,14.43
2023-02-02T08:31:24.476Z,13.95
2023-02-02T08:33:51.734Z,14.32
2023-02-02T08:36:20.410Z,14.15
2023-02-02T08:38:47.118Z,13.57
2023-02-02T08:41:16.338Z,14.40
2023-02-02T08:43:43.324Z,13.48
2023-02-02T08:46:11.614Z,13.10
2023-02-02T08:48:38.974Z,13.13
2023-02-02T08:51:06.246Z,12.52
2023-02-02T08:53:33.081Z,12.60
2023-02-02T08:56:03.935Z,11.95
2023-02-02T08:58:30.954Z,13.75
2023-02-02T09:01:08.884Z,12.30
2023-02-02T09:03:35.840Z,12.75
2023-02-02T09:06:06.919Z,11.68
2023-02-02T09:08:34.074Z,12.32
2023-02-02T09:11:11.193Z,11.15
2023-02-02T09:13:38.788Z,12.63
2023-02-02T09:16:09.420Z,12.35
2023-02-02T09:18:35.995Z,11.95
2023-02-02T09:21:04.593Z,12.32
2023-02-02T09:23:32.768Z,12.93
2023-02-02T09:26:29.438Z,12.40
2023-02-02T09:28:57.998Z,12.82
2023-02-02T09:31:25.623Z,13.43
2023-02-02T09:33:52.261Z,13.55
2023-02-02T09:36:20.837Z,12.82
2023-02-02T09:38:47.890Z,12.45
2023-02-02T09:41:39.439Z,13.52
2023-02-02T09:47:00.921Z,13.23
2023-02-02T09:49:53.313Z,12.57
2023-02-02T09:52:46.573Z,12.57
2023-02-02T09:55:34.967Z,13.40
2023-02-02T09:58:22.780Z,14.35
2023-02-02T10:01:10.929Z,13.45
2023-02-02T10:03:40.952Z,13.52
2023-02-02T10:06:17.188Z,13.52
2023-02-02T10:08:52.661Z,14.98
2023-02-02T10:11:25.038Z,13.20
2023-02-02T10:13:54.741Z,13.32
2023-02-02T10:16:22.373Z,13.00
2023-02-02T10:19:03.483Z,13.27
2023-02-02T10:21:40.288Z,13.27
2023-02-02T10:24:18.225Z,12.30
2023-02-02T10:26:54.726Z,13.27
2023-02-02T10:29:48.394Z,11.95
2023-02-02T10:32:24.011Z,11.98
2023-02-02T10:35:07.014Z,11.60
2023-02-02T10:37:56.912Z,11.90
2023-02-02T10:40:36.473Z,11.70
2023-02-02T10:43:37.224Z,12.13
2023-02-02T10:46:04.668Z,10.48
2023-02-02T10:48:35.810Z,11.50
2023-02-02T10:53:33.941Z,10.15
2023-02-02T10:56:06.797Z,9.80
2023-02-02T10:58:43.262Z,9.02
2023-02-02T11:01:11.599Z,8.82
2023-02-02T11:03:39.809Z,9.00
2023-02-02T11:06:26.753Z,9.23
2023-02-02T11:08:59.297Z,8.32
2023-02-02T11:11:28.165Z,8.23
2023-02-02T11:13:59.700Z,8.65
2023-02-02T11:16:41.549Z,8.25
2023-02-02T11:19:18.880Z,8.60
2023-02-02T11:21:48.539Z,7.05
2023-02-02T11:24:37.808Z,8.25
2023-02-02T11:27:12.983Z,7.95
2023-02-02T11:29:39.395Z,8.15
2023-02-02T11:32:33.214Z,7.95
2023-02-02T11:35:02.454Z,7.53
2023-02-02T11:37:29.233Z,8.48
2023-02-02T11:40:29.391Z,8.25
2023-02-02T11:42:57.749Z,9.85
2023-02-02T11:45:37.751Z,7.85
2023-02-02T11:48:26.247Z,7.60
2023-02-02T11:50:54.901Z,8.52
2023-02-02T11:53:36.489Z,7.93
2023-02-02T11:56:06.815Z,7.82
2023-02-02T11:58:46.896Z,6.13
2023-02-02T12:01:22.941Z,7.72
2023-02-02T12:03:50.096Z,8.10
2023-02-02T12:06:22.216Z,8.38
2023-02-02T12:08:48.962Z,7.30
2023-02-02T12:11:42.550Z,8.70
2023-02-02T12:14:16.627Z,7.47
2023-02-02T12:17:05.175Z,7.43
2023-02-02T12:19:52.741Z,7.95
2023-02-02T12:22:29.670Z,7.30
2023-02-02T12:25:14.253Z,6.90
2023-02-02T12:28:11.523Z,7.68
2023-02-02T12:30:46.785Z,6.32
2023-02-02T12:33:38.167Z,7.75
2023-02-02T12:36:07.399Z,7.18
2023-02-02T12:39:04.180Z,7.20
2023-02-02T12:41:39.881Z,6.28
2023-02-02T12:44:06.513Z,5.47
2023-02-02T12:46:57.734Z,6.53
2023-02-02T12:49:58.368Z,6.13
2023-02-02T12:52:35.080Z,6.97
2023-02-02T12:55:51.115Z,6.63
2023-02-02T12:58:25.137Z,6.60
2023-02-02T13:00:54.609Z,6.88
2023-02-02T13:03:29.393Z,6.72
2023-02-02T13:06:09.561Z,7.10
2023-02-02T13:08:53.151Z,6.80
2023-02-02T13:11:40.237Z,7.95
2023-02-02T13:14:11.578Z,8.07
2023-02-02T13:19:21.038Z,8.82
2023-02-02T13:21:48.482Z,9.02
2023-02-02T13:24:20.673Z,8.77
2023-02-02T13:26:48.491Z,8.65
2023-02-02T13:29:31.799Z,9.75
2023-02-02T13:32:03.253Z,10.13
2023-02-02T13:34:38.865Z,10.00
2023-02-02T13:37:25.680Z,10.40
2023-02-02T13:40:06.417Z,10.65
2023-02-02T13:42:38.128Z,12.35
2023-02-02T13:45:34.712Z,11.05
2023-02-02T13:48:22.994Z,10.63
2023-02-02T13:51:21.182Z,11.10
2023-02-02T13:54:08.738Z,11.40
2023-02-02T13:57:09.360Z,11.18
2023-02-02T13:59:38.630Z,11.27
2023-02-02T14:02:07.369Z,11.27
2023-02-02T14:04:33.946Z,13.02
2023-02-02T14:09:33.136Z,11.25
2023-02-02T14:12:07.186Z,13.02
2023-02-02T14:14:35.614Z,12.63
2023-02-02T14:17:08.418Z,12.77
2023-02-02T14:19:35.008Z,12.77
2023-02-02T14:22:05.643Z,13.93
2023-02-02T14:24:35.171Z,14.05
2023-02-02T14:27:05.399Z,14.20
2023-02-02T14:29:32.010Z,14.27
2023-02-02T14:32:06.627Z,14.60
2023-02-02T14:34:41.095Z,15.35
2023-02-02T14:37:22.653Z,14.65
2023-02-02T14:39:58.209Z,15.38
2023-02-02T14:43:02.076Z,15.38
2023-02-02T14:45:35.132Z,14.52
2023-02-02T14:48:20.648Z,15.23
2023-02-02T14:50:55.016Z,16.75
2023-02-02T14:53:25.341Z,14.88
2023-02-02T14:56:01.839Z,14.57
2023-02-02T14:58:30.440Z,14.70
2023-02-02T15:01:11.794Z,13.70
2023-02-02T15:06:29.094Z,14.23
2023-02-02T15:09:20.346Z,14.02
2023-02-02T15:12:16.032Z,14.43
2023-02-02T15:14:53.319Z,13.93
2023-02-02T15:17:22.431Z,15.00
2023-02-02T15:19:54.190Z,14.15
2023-02-02T15:22:30.065Z,14.52
2023-02-02T15:24:58.916Z,14.30
2023-02-02T15:27:26.221Z,14.95
2023-02-02T15:29:55.253Z,15.77
2023-02-02T15:32:24.515Z,15.48
2023-02-02T15:34:53.699Z,14.23
2023-02-02T15:37:23.618Z,15.45
2023-02-02T15:39:56.161Z,16.48
2023-02-02T15:42:45.762Z,15.95
2023-02-02T15:45:31.731Z,15.20
2023-02-02T15:47:59.603Z,14.90
2023-02-02T15:50:26.895Z,15.48
2023-02-02T15:52:54.737Z,15.73
2023-02-02T15:55:25.471Z,16.23
2023-02-02T15:57:54.389Z,15.30
2023-02-02T16:00:27.796Z,15.70
2023-02-02T16:03:02.116Z,15.38
2023-02-02T16:05:31.386Z,17.25
2023-02-02T16:08:05.768Z,16.20
2023-02-02T16:10:34.132Z,17.45
2023-02-02T16:13:01.231Z,17.98
2023-02-02T16:15:29.763Z,17.48
2023-02-02T16:18:03.057Z,17.08
2023-02-02T16:20:33.222Z,16.83
2023-02-02T16:23:02.381Z,18.98
2023-02-02T16:25:34.759Z,20.45
2023-02-02T16:28:01.455Z,22.02
2023-02-02T16:30:38.573Z,21.10
2023-02-02T16:33:33.119Z,23.40
2023-02-02T16:35:59.689Z,21.85
2023-02-02T16:38:31.232Z,23.33
2023-02-02T16:41:08.484Z,23.38
2023-02-02T16:43:37.880Z,24.40
2023-02-02T16:46:10.932Z,25.85
2023-02-02T16:48:57.011Z,25.98
2023-02-02T16:51:33.580Z,26.48
2023-02-02T16:54:12.316Z,27.70
2023-02-02T16:56:41.047Z,26.08
2023-02-02T16:59:29.552Z,23.83
2023-02-02T17:01:58.474Z,24.42
2023-02-02T17:04:27.931Z,26.65
2023-02-02T17:06:56.698Z,26.08
2023-02-02T17:09:36.133Z,25.20
2023-02-02T17:12:09.283Z,25.92
2023-02-02T17:14:50.841Z,26.38
2023-02-02T17:17:17.388Z,25.90
2023-02-02T17:19:43.892Z,28.88
2023-02-02T17:22:10.859Z,28.83
2023-02-02T17:24:37.544Z,27.17
2023-02-02T17:27:04.564Z,26.88
2023-02-02T17:29:31.489Z,27.05
2023-02-02T17:31:58.066Z,28.38
2023-02-02T17:34:24.968Z,26.40
2023-02-02T17:36:51.591Z,27.30
2023-02-02T17:39:18.117Z,28.33
2023-02-02T17:41:48.561Z,27.27
2023-02-02T17:44:15.109Z,27.45
2023-02-02T17:46:41.643Z,26.35
2023-02-02T17:49:08.219Z,28.88
2023-02-02T17:51:41.003Z,30.40
2023-02-02T17:54:12.396Z,29.90
2023-02-02T17:56:39.408Z,31.08
2023-02-02T17:59:06.157Z,31.90
2023-02-02T18:01:34.787Z,30.23
2023-02-02T18:04:02.193Z,29.08
2023-02-02T18:06:28.746Z,29.63
2023-02-02T18:08:55.269Z,31.20
2023-02-02T18:11:21.835Z,31.45
2023-02-02T18:13:48.361Z,29.40
2023-02-02T18:16:14.960Z,32.08
2023-02-02T18:18:41.525Z,31.42
2023-02-02T18:21:09.887Z,30.77
2023-02-02T18:23:37.434Z,32.25
2023-02-02T18:26:12.976Z,33.63
2023-02-02T18:28:39.658Z,30.17
2023-02-02T18:31:11.010Z,30.65
2023-02-02T18:33:40.024Z,32.53
2023-02-02T18:36:11.778Z,28.08
2023-02-02T18:38:40.277Z,31.70
2023-02-02T18:41:07.442Z,29.50
2023-02-02T18:43:34.023Z,31.17
2023-02-02T18:46:02.785Z,31.05
2023-02-02T18:48:29.401Z,29.80
2023-02-02T18:50:56.011Z,30.48
2023-02-02T18:53:22.581Z,30.20
2023-02-02T18:55:49.136Z,29.85
2023-02-02T18:58:16.210Z,29.65
2023-02-02T19:00:43.550Z,27.42
2023-02-02T19:03:10.071Z,29.02
2023-02-02T19:05:55.069Z,28.35
2023-02-02T19:08:21.949Z,28.77
2023-02-02T19:10:50.302Z,30.50
2023-02-02T19:13:19.196Z,27.60
2023-02-02T19:15:49.594Z,27.67
2023-02-02T19:18:25.171Z,28.45
2023-02-02T19:20:52.483Z,28.85
2023-02-02T19:23:23.230Z,27.73
2023-02-02T19:25:54.040Z,28.33
2023-02-02T19:28:23.572Z,27.95
2023-02-02T19:30:52.395Z,29.48
2023-02-02T19:33:19.619Z,29.25
2023-02-02T19:35:49.139Z,29.20
2023-02-02T19:38:17.488Z,29.05
2023-02-02T19:40:44.334Z,25.65
2023-02-02T19:43:10.744Z,26.35
2023-02-02T19:45:39.546Z,25.70
2023-02-02T19:48:31.278Z,28.02
2023-02-02T19:50:58.027Z,25.95
2023-02-02T19:53:30.654Z,29.35
2023-02-02T19:55:57.215Z,28.05
2023-02-02T19:58:28.067Z,25.25
2023-02-02T20:00:57.106Z,24.60
2023-02-02T20:03:28.538Z,25.90
2023-02-02T20:05:56.559Z,23.65
2023-02-02T20:08:43.268Z,24.40
2023-02-02T20:11:36.981Z,25.10
2023-02-02T20:14:21.503Z,25.25
2023-02-02T20:16:53.892Z,24.52
2023-02-02T20:19:23.323Z,25.35
2023-02-02T20:21:51.891Z,26.13
2023-02-02T20:24:22.681Z,25.95
2023-02-02T20:26:49.827Z,25.13
2023-02-02T20:29:19.300Z,25.05
2023-02-02T20:31:46.998Z,24.00
2023-02-02T20:34:25.201Z,22.88
2023-02-02T20:37:10.593Z,23.75
2023-02-02T20:39:41.958Z,23.55
2023-02-02T20:42:08.470Z,23.40
2023-02-02T20:44:35.254Z,21.67
2023-02-02T20:47:02.758Z,21.80
2023-02-02T20:49:31.562Z,21.40
2023-02-02T20:52:00.290Z,22.48
2023-02-02T20:54:26.851Z,21.95
2023-02-02T20:56:54.271Z,21.70
2023-02-02T20:59:20.994Z,22.17
2023-02-02T21:01:49.621Z,20.55
2023-02-02T21:04:17.492Z,21.92
2023-02-02T21:06:44.804Z,21.67
2023-02-02T21:09:11.726Z,21.42
2023-02-02T21:11:38.764Z,22.27
2023-02-02T21:14:05.625Z,20.88
2023-02-02T21:16:32.488Z,22.00
2023-02-02T21:18:59.143Z,22.48
2023-02-02T21:21:25.725Z,22.48
2023-02-02T21:23:52.565Z,20.38
2023-02-02T21:26:22.055Z,21.90
2023-02-02T21:28:49.219Z,21.95
2023-02-02T21:31:17.734Z,21.30
2023-02-02T21:33:45.518Z,21.88
2023-02-02T21:36:29.409Z,21.45
2023-02-02T21:39:01.980Z,20.95
2023-02-02T21:41:29.503Z,22.30
2023-02-02T21:43:57.193Z,20.83
2023-02-02T21:46:29.951Z,21.50
2023-02-02T21:48:56.571Z,22.20
2023-02-02T21:51:25.963Z,21.88
2023-02-02T21:53:52.850Z,21.85
2023-02-02T21:56:28.064Z,21.02
2023-02-02T21:58:58.188Z,21.85
2023-02-02T22:01:33.814Z,21.52
2023-02-02T22:04:00.693Z,21.67
2023-02-02T22:06:29.159Z,21.30
2023-02-02T22:09:19.915Z,21.83
2023-02-02T22:11:58.473Z,22.42
2023-02-02T22:14:39.244Z,21.80
2023-02-02T22:17:26.804Z,19.90
2023-02-02T22:19:59.139Z,19.00
2023-02-02T22:22:29.072Z,20.52
2023-02-02T22:25:00.485Z,19.02
2023-02-02T22:27:40.096Z,19.60
2023-02-02T22:30:16.597Z,19.95
2023-02-02T22:32:43.242Z,18.00
2023-02-02T22:35:09.736Z,17.30
2023-02-02T22:37:36.302Z,17.85
2023-02-02T22:40:03.241Z,17.85
2023-02-02T22:42:29.864Z,17.60
2023-02-02T22:44:56.496Z,17.25
2023-02-02T22:47:23.143Z,16.70
2023-02-02T22:49:49.700Z,16.75
2023-02-02T22:52:16.222Z,16.80
2023-02-02T22:54:42.750Z,16.48
2023-02-02T22:57:09.657Z,15.88
2023-02-02T22:59:36.516Z,18.23
2023-02-02T23:02:03.041Z,17.63
2023-02-02T23:04:49.831Z,18.60
2023-02-02T23:07:30.397Z,17.33
2023-02-02T23:09:57.128Z,18.00
2023-02-02T23:12:23.648Z,16.83
2023-02-02T23:14:50.229Z,15.93
2023-02-02T23:17:17.763Z,16.25
2023-02-02T23:19:44.420Z,17.52
2023-02-02T23:22:10.970Z,17.70
2023-02-02T23:24:38.810Z,16.45
2023-02-02T23:27:05.538Z,17.85
2023-02-02T23:29:32.170Z,17.25
2023-02-02T23:31:59.138Z,19.48
2023-02-02T23:34:25.652Z,16.63
2023-02-02T23:36:53.515Z,17.98
2023-02-02T23:39:20.167Z,17.67
2023-02-02T23:41:46.934Z,19.05
2023-02-02T23:44:14.112Z,17.60
2023-02-02T23:46:41.061Z,16.45
2023-02-02T23:49:07.721Z,16.90
2023-02-02T23:51:34.659Z,17.10
2023-02-02T23:54:01.698Z,16.38
2023-02-02T23:56:28.704Z,17.48
2023-02-02T23:58:55.301Z,17.05
